createdAt,value
2019-02-28T00:01:47.191Z,7.21
2019-02-28T00:04:17.850Z,7.24
2019-02-28T00:06:48.378Z,7.11
2019-02-28T00:09:18.935Z,7.17
2019-02-28T00:11:49.442Z,7.13
2019-02-28T00:14:19.900Z,7.20
2019-02-28T00:16:50.450Z,7.15
2019-02-28T00:19:23.632Z,7.12
2019-02-28T00:21:53.159Z,7.18
2019-02-28T00:24:23.624Z,7.10
2019-02-28T00:26:54.072Z,7.13
2019-02-28T00:29:24.567Z,7.07
2019-02-28T00:31:55.015Z,7.02
2019-02-28T00:34:25.508Z,6.86
2019-02-28T00:36:56.085Z,6.93
2019-02-28T00:39:26.537Z,6.89
2019-02-28T00:41:57.028Z,6.91
2019-02-28T00:44:30.481Z,6.94
2019-02-28T00:46:59.673Z,7.04
2019-02-28T00:49:30.173Z,6.95
2019-02-28T00:52:01.560Z,7.00
2019-02-28T00:54:32.698Z,6.97
2019-02-28T00:57:03.205Z,7.06
2019-02-28T00:59:33.667Z,7.01
2019-02-28T01:02:04.253Z,6.99
2019-02-28T01:04:34.713Z,7.05
2019-02-28T01:07:05.177Z,7.01
2019-02-28T01:09:35.679Z,6.95
2019-02-28T01:12:06.282Z,7.05
2019-02-28T01:14:36.737Z,7.05
2019-02-28T01:17:07.222Z,7.10
2019-02-28T01:19:41.339Z,7.07
2019-02-28T01:22:09.908Z,7.22
2019-02-28T01:24:40.443Z,7.19
2019-02-28T01:27:10.909Z,7.21
2019-02-28T01:29:41.519Z,7.31
2019-02-28T01:32:15.271Z,7.38
2019-02-28T01:34:44.150Z,7.46
2019-02-28T01:37:14.639Z,7.39
2019-02-28T01:39:45.127Z,7.34
2019-02-28T01:42:16.298Z,7.38
2019-02-28T01:44:47.742Z,7.37
2019-02-28T01:47:19.999Z,7.38
2019-02-28T01:49:50.364Z,7.36
2019-02-28T01:52:20.797Z,7.29
2019-02-28T01:54:51.291Z,7.35
2019-02-28T01:57:21.750Z,6.63
2019-02-28T01:59:52.899Z,7.29
2019-02-28T02:02:24.074Z,7.22
2019-02-28T02:04:54.523Z,7.17
2019-02-28T02:07:25.107Z,7.18
2019-02-28T02:09:55.662Z,7.20
2019-02-28T02:12:26.234Z,7.19
2019-02-28T02:14:56.690Z,7.28
2019-02-28T02:17:27.183Z,7.12
2019-02-28T02:19:57.670Z,7.12
2019-02-28T02:22:28.130Z,7.11
2019-02-28T02:24:59.322Z,7.13
2019-02-28T02:27:30.840Z,7.15
2019-02-28T02:30:01.346Z,7.07
2019-02-28T02:32:37.453Z,7.02
2019-02-28T02:35:08.108Z,6.95
2019-02-28T02:37:36.247Z,6.95
2019-02-28T02:40:07.182Z,6.95
2019-02-28T02:42:37.718Z,6.88
2019-02-28T02:45:09.347Z,6.77
2019-02-28T02:47:39.851Z,6.67
2019-02-28T02:50:12.128Z,6.71
2019-02-28T02:52:42.665Z,6.77
2019-02-28T02:55:13.495Z,6.69
2019-02-28T02:57:50.686Z,6.62
2019-02-28T03:00:17.530Z,6.57
2019-02-28T03:02:48.127Z,6.52
2019-02-28T03:05:18.592Z,6.62
2019-02-28T03:07:49.036Z,6.54
2019-02-28T03:10:19.977Z,6.51
2019-02-28T03:12:50.536Z,6.47
2019-02-28T03:15:26.934Z,6.63
2019-02-28T03:17:53.168Z,6.55
2019-02-28T03:20:23.619Z,6.41
2019-02-28T03:22:54.091Z,6.40
2019-02-28T03:25:28.259Z,6.48
2019-02-28T03:27:57.000Z,6.51
2019-02-28T03:30:32.005Z,6.40
2019-02-28T03:32:59.645Z,6.39
2019-02-28T03:35:40.312Z,6.38
2019-02-28T03:38:02.272Z,6.34
2019-02-28T03:40:39.796Z,6.36
2019-02-28T03:43:06.666Z,6.32
2019-02-28T03:45:37.166Z,6.35
2019-02-28T03:48:07.664Z,6.42
2019-02-28T03:50:38.117Z,6.30
2019-02-28T03:53:08.620Z,6.36
2019-02-28T03:55:40.813Z,6.29
2019-02-28T03:58:11.651Z,6.38
2019-02-28T04:00:42.229Z,6.30
2019-02-28T04:03:12.712Z,6.41
2019-02-28T04:05:43.389Z,6.28
2019-02-28T04:08:13.871Z,6.30
2019-02-28T04:10:44.315Z,6.33
2019-02-28T04:13:19.178Z,6.33
2019-02-28T04:16:02.349Z,6.27
2019-02-28T04:18:19.207Z,6.31
2019-02-28T04:20:49.663Z,6.34
2019-02-28T04:23:20.165Z,6.35
2019-02-28T04:25:50.611Z,6.32
2019-02-28T04:28:21.307Z,6.34
2019-02-28T04:30:51.727Z,6.38
2019-02-28T04:33:22.236Z,6.35
2019-02-28T04:35:52.692Z,6.34
2019-02-28T04:38:23.165Z,6.34
2019-02-28T04:40:53.674Z,6.29
2019-02-28T04:43:24.141Z,6.30
2019-02-28T04:45:57.694Z,6.34
2019-02-28T04:48:26.783Z,6.36
2019-02-28T04:50:57.280Z,6.42
2019-02-28T04:53:27.831Z,6.44
2019-02-28T04:55:58.350Z,6.42
2019-02-28T04:58:28.797Z,6.45
2019-02-28T05:00:59.276Z,6.47
2019-02-28T05:03:29.718Z,6.46
2019-02-28T05:06:00.216Z,6.48
2019-02-28T05:08:30.664Z,6.55
2019-02-28T05:11:01.115Z,6.56
2019-02-28T05:13:31.606Z,6.65
2019-02-28T05:16:02.102Z,6.68
2019-02-28T05:18:32.594Z,6.67
2019-02-28T05:21:03.056Z,6.58
2019-02-28T05:23:36.041Z,6.69
2019-02-28T05:26:05.701Z,6.63
2019-02-28T05:28:40.177Z,6.70
2019-02-28T05:31:08.339Z,6.68
2019-02-28T05:33:42.018Z,6.76
2019-02-28T05:36:11.079Z,6.92
2019-02-28T05:38:41.586Z,6.98
2019-02-28T05:41:15.274Z,7.06
2019-02-28T05:43:46.395Z,7.04
2019-02-28T05:46:16.879Z,7.02
2019-02-28T05:48:47.678Z,7.22
2019-02-28T05:51:18.189Z,7.20
2019-02-28T05:53:48.629Z,7.20
2019-02-28T05:56:19.126Z,7.30
2019-02-28T05:58:52.474Z,7.13
2019-02-28T06:01:21.815Z,7.34
2019-02-28T06:03:52.334Z,7.43
2019-02-28T06:06:25.377Z,7.47
2019-02-28T06:08:55.063Z,7.55
2019-02-28T06:11:25.539Z,7.56
2019-02-28T06:13:56.052Z,7.75
2019-02-28T06:16:26.568Z,7.88
2019-02-28T06:18:57.225Z,7.91
2019-02-28T06:21:27.682Z,7.97
2019-02-28T06:23:58.188Z,8.13
2019-02-28T06:26:31.914Z,8.21
2019-02-28T06:29:04.739Z,8.24
2019-02-28T06:31:34.416Z,7.68
2019-02-28T06:34:05.652Z,8.54
2019-02-28T06:36:37.287Z,8.44
2019-02-28T06:39:08.553Z,8.64
2019-02-28T06:41:39.979Z,8.53
2019-02-28T06:44:11.809Z,8.77
2019-02-28T06:46:42.310Z,8.81
2019-02-28T06:49:12.813Z,8.87
2019-02-28T06:51:43.291Z,8.91
2019-02-28T06:54:13.769Z,9.10
2019-02-28T06:56:44.487Z,9.02
2019-02-28T06:59:15.101Z,9.25
2019-02-28T07:01:45.594Z,9.29
2019-02-28T07:04:16.086Z,9.50
2019-02-28T07:06:46.633Z,9.74
2019-02-28T07:09:17.084Z,9.59
2019-02-28T07:11:47.647Z,9.77
2019-02-28T07:14:18.172Z,9.72
2019-02-28T07:16:48.743Z,9.92
2019-02-28T07:19:19.341Z,9.99
2019-02-28T07:21:49.824Z,10.02
2019-02-28T07:24:20.716Z,10.05
2019-02-28T07:26:52.295Z,10.02
2019-02-28T07:29:23.533Z,10.12
2019-02-28T07:31:59.992Z,10.16
2019-02-28T07:34:26.622Z,10.01
2019-02-28T07:36:57.066Z,9.96
2019-02-28T07:39:30.399Z,10.04
2019-02-28T07:42:02.245Z,10.15
2019-02-28T07:44:33.212Z,9.97
2019-02-28T07:47:03.757Z,10.09
2019-02-28T07:49:36.797Z,10.28
2019-02-28T07:52:06.561Z,10.26
2019-02-28T07:54:37.111Z,10.24
2019-02-28T07:57:07.584Z,10.31
2019-02-28T07:59:42.406Z,10.46
2019-02-28T08:02:13.251Z,10.47
2019-02-28T08:04:50.627Z,10.35
2019-02-28T08:07:19.816Z,10.45
2019-02-28T08:09:50.321Z,10.49
2019-02-28T08:12:20.835Z,10.67
2019-02-28T08:14:51.305Z,10.63
2019-02-28T08:17:21.798Z,10.64
2019-02-28T08:19:52.281Z,10.70
2019-02-28T08:22:24.362Z,10.75
2019-02-28T08:24:55.357Z,10.84
2019-02-28T08:27:26.260Z,10.89
2019-02-28T08:29:56.880Z,11.02
2019-02-28T08:32:27.366Z,11.07
2019-02-28T08:34:59.529Z,11.11
2019-02-28T08:37:30.121Z,11.14
2019-02-28T08:40:00.669Z,10.99
2019-02-28T08:42:31.254Z,11.08
2019-02-28T08:45:01.766Z,11.20
2019-02-28T08:47:32.316Z,11.27
2019-02-28T08:50:02.990Z,11.27
2019-02-28T08:52:33.494Z,11.19
2019-02-28T08:55:07.035Z,11.29
2019-02-28T08:57:36.176Z,11.38
2019-02-28T09:00:08.467Z,11.49
2019-02-28T09:02:39.351Z,11.56
2019-02-28T09:05:10.334Z,11.42
2019-02-28T09:07:40.959Z,11.60
2019-02-28T09:10:16.808Z,11.83
2019-02-28T09:12:47.571Z,11.84
2019-02-28T09:15:18.623Z,11.93
2019-02-28T09:17:49.293Z,11.93
2019-02-28T09:20:20.299Z,10.58
2019-02-28T09:22:51.069Z,12.07
2019-02-28T09:25:22.763Z,12.09
2019-02-28T09:27:53.575Z,12.25
2019-02-28T09:30:29.635Z,12.30
2019-02-28T09:32:58.975Z,12.37
2019-02-28T09:35:29.810Z,12.28
2019-02-28T09:38:06.268Z,12.29
2019-02-28T09:40:34.005Z,12.36
2019-02-28T09:43:04.600Z,12.44
2019-02-28T09:45:35.096Z,12.57
2019-02-28T09:48:05.831Z,12.57
2019-02-28T09:50:36.308Z,12.67
2019-02-28T09:53:06.798Z,12.81
2019-02-28T09:55:37.276Z,12.83
2019-02-28T09:58:07.932Z,13.02
2019-02-28T10:00:38.906Z,13.00
2019-02-28T10:03:09.391Z,13.00
2019-02-28T10:05:42.544Z,13.00
2019-02-28T10:08:12.067Z,13.03
2019-02-28T10:10:42.598Z,12.90
2019-02-28T10:13:14.535Z,12.96
2019-02-28T10:15:45.377Z,13.12
2019-02-28T10:18:15.862Z,13.28
2019-02-28T10:20:46.354Z,13.34
2019-02-28T10:23:18.432Z,13.29
2019-02-28T10:25:49.198Z,13.47
2019-02-28T10:28:19.772Z,13.19
2019-02-28T10:30:50.899Z,13.74
2019-02-28T10:33:21.469Z,13.13
2019-02-28T10:35:52.000Z,13.87
2019-02-28T10:38:22.563Z,13.78
2019-02-28T10:40:53.334Z,13.70
2019-02-28T10:43:23.963Z,13.79
2019-02-28T10:45:54.600Z,13.69
2019-02-28T10:48:25.625Z,13.16
2019-02-28T10:50:56.488Z,13.97
2019-02-28T10:53:27.015Z,13.97
2019-02-28T10:55:57.969Z,13.99
2019-02-28T10:58:29.638Z,13.95
2019-02-28T11:01:00.226Z,13.92
2019-02-28T11:03:32.200Z,14.03
2019-02-28T11:06:03.161Z,14.20
2019-02-28T11:08:33.973Z,14.28
2019-02-28T11:11:07.399Z,14.35
2019-02-28T11:13:37.000Z,14.34
2019-02-28T11:16:07.706Z,13.63
2019-02-28T11:18:38.330Z,14.41
2019-02-28T11:21:08.969Z,14.51
2019-02-28T11:23:39.574Z,14.59
2019-02-28T11:26:10.462Z,14.50
2019-02-28T11:28:41.186Z,14.53
2019-02-28T11:31:11.873Z,14.54
2019-02-28T11:33:42.455Z,14.55
2019-02-28T11:36:13.125Z,14.58
2019-02-28T11:38:43.732Z,14.65
2019-02-28T11:41:15.467Z,14.67
2019-02-28T11:43:46.508Z,14.60
2019-02-28T11:46:17.422Z,14.75
2019-02-28T11:48:47.998Z,14.74
2019-02-28T11:51:18.707Z,14.86
2019-02-28T11:53:49.160Z,14.92
2019-02-28T11:56:19.780Z,14.93
2019-02-28T11:58:51.757Z,14.92
2019-02-28T12:01:22.408Z,15.04
2019-02-28T12:03:53.015Z,15.17
2019-02-28T12:06:25.635Z,15.20
2019-02-28T12:08:58.537Z,15.27
2019-02-28T12:11:29.144Z,15.25
2019-02-28T12:13:59.620Z,15.26
2019-02-28T12:16:30.165Z,15.32
2019-02-28T12:19:00.621Z,15.37
2019-02-28T12:21:31.102Z,15.36
2019-02-28T12:24:01.760Z,15.38
2019-02-28T12:26:32.317Z,15.37
2019-02-28T12:29:02.811Z,15.49
2019-02-28T12:31:35.604Z,15.53
2019-02-28T12:34:05.499Z,15.66
2019-02-28T12:36:36.028Z,15.71
2019-02-28T12:39:08.815Z,15.82
2019-02-28T12:41:40.144Z,15.80
2019-02-28T12:44:12.342Z,15.89
2019-02-28T12:46:43.722Z,15.85
2019-02-28T12:49:14.177Z,15.85
2019-02-28T12:51:44.685Z,15.94
2019-02-28T12:54:15.188Z,16.03
2019-02-28T12:56:47.829Z,16.02
2019-02-28T12:59:18.002Z,16.17
2019-02-28T13:01:48.541Z,16.16
2019-02-28T13:04:19.035Z,16.19
2019-02-28T13:06:49.751Z,16.18
2019-02-28T13:09:20.362Z,16.33
2019-02-28T13:11:51.065Z,16.18
2019-02-28T13:14:21.580Z,16.28
2019-02-28T13:16:54.610Z,16.19
2019-02-28T13:19:25.561Z,16.29
2019-02-28T13:21:56.214Z,15.30
2019-02-28T13:24:26.709Z,16.24
2019-02-28T13:26:57.199Z,16.30
2019-02-28T13:29:28.783Z,16.29
2019-02-28T13:32:01.474Z,15.63
2019-02-28T13:34:32.281Z,16.34
2019-02-28T13:37:03.222Z,16.33
2019-02-28T13:39:33.756Z,16.39
2019-02-28T13:42:04.429Z,16.38
2019-02-28T13:44:36.296Z,16.37
2019-02-28T13:47:09.834Z,16.45
2019-02-28T13:49:39.397Z,16.50
2019-02-28T13:52:09.877Z,16.55
2019-02-28T13:54:42.105Z,16.49
2019-02-28T13:57:12.599Z,15.84
2019-02-28T13:59:43.129Z,16.48
2019-02-28T14:02:14.058Z,16.53
2019-02-28T14:04:44.538Z,16.56
2019-02-28T14:07:15.005Z,16.53
2019-02-28T14:09:45.586Z,16.52
2019-02-28T14:12:20.062Z,16.51
2019-02-28T14:14:48.649Z,16.54
2019-02-28T14:17:19.220Z,16.60
2019-02-28T14:19:52.768Z,16.61
2019-02-28T14:22:21.887Z,16.62
2019-02-28T14:24:52.403Z,16.60
2019-02-28T14:27:25.237Z,16.59
2019-02-28T14:29:55.125Z,15.84
2019-02-28T14:32:25.717Z,16.52
2019-02-28T14:34:57.327Z,16.50
2019-02-28T14:37:28.589Z,16.48
2019-02-28T14:39:59.123Z,16.42
2019-02-28T14:42:29.594Z,16.42
2019-02-28T14:45:00.247Z,16.39
2019-02-28T14:47:30.832Z,16.46
2019-02-28T14:50:01.368Z,16.43
2019-02-28T14:52:32.250Z,16.32
2019-02-28T14:55:02.772Z,16.37
2019-02-28T14:57:33.245Z,16.29
2019-02-28T15:00:06.507Z,16.31
2019-02-28T15:02:36.300Z,16.26
2019-02-28T15:05:08.805Z,16.15
2019-02-28T15:07:41.441Z,16.13
2019-02-28T15:10:14.228Z,16.14
2019-02-28T15:12:44.983Z,16.17
2019-02-28T15:15:18.031Z,16.22
2019-02-28T15:17:49.490Z,16.14
2019-02-28T15:20:20.370Z,16.01
2019-02-28T15:22:52.496Z,16.01
2019-02-28T15:25:23.237Z,16.05
2019-02-28T15:27:53.697Z,16.05
2019-02-28T15:30:26.379Z,16.03
2019-02-28T15:32:56.842Z,16.01
2019-02-28T15:35:27.635Z,15.99
2019-02-28T15:37:58.202Z,16.01
2019-02-28T15:40:30.789Z,15.98
2019-02-28T15:43:01.249Z,15.95
2019-02-28T15:45:31.971Z,15.81
2019-02-28T15:48:02.445Z,15.75
2019-02-28T15:50:32.965Z,15.76
2019-02-28T15:53:03.542Z,15.66
2019-02-28T15:55:35.479Z,15.67
2019-02-28T15:58:07.099Z,15.62
2019-02-28T16:00:37.969Z,15.53
2019-02-28T16:03:08.483Z,15.45
2019-02-28T16:05:44.004Z,15.29
2019-02-28T16:08:11.201Z,15.25
2019-02-28T16:10:52.630Z,15.29
2019-02-28T16:13:14.125Z,15.30
2019-02-28T16:15:46.367Z,15.26
2019-02-28T16:18:16.891Z,15.13
2019-02-28T16:20:47.489Z,15.10
2019-02-28T16:23:18.067Z,15.04
2019-02-28T16:25:50.146Z,14.95
2019-02-28T16:28:20.774Z,14.93
2019-02-28T16:30:51.291Z,14.88
2019-02-28T16:33:24.915Z,14.68
2019-02-28T16:35:54.131Z,14.55
2019-02-28T16:38:24.610Z,14.44
2019-02-28T16:40:57.736Z,14.41
2019-02-28T16:43:27.416Z,14.21
2019-02-28T16:45:57.882Z,14.09
2019-02-28T16:48:28.386Z,13.96
2019-02-28T16:50:58.996Z,13.96
2019-02-28T16:53:29.449Z,13.83
2019-02-28T16:56:02.572Z,13.81
2019-02-28T16:58:32.152Z,13.74
2019-02-28T17:01:02.607Z,13.68
2019-02-28T17:03:33.124Z,13.61
2019-02-28T17:06:03.597Z,13.52
2019-02-28T17:08:38.889Z,13.33
2019-02-28T17:11:09.349Z,13.24
2019-02-28T17:13:42.439Z,13.17
2019-02-28T17:16:26.421Z,13.16
2019-02-28T17:18:57.456Z,13.09
2019-02-28T17:21:27.860Z,13.06
2019-02-28T17:23:58.381Z,13.05
2019-02-28T17:27:06.260Z,13.07
2019-02-28T17:29:48.933Z,13.10
2019-02-28T17:32:19.779Z,13.17
2019-02-28T17:34:50.232Z,13.18
2019-02-28T17:37:26.046Z,13.24
2019-02-28T17:39:53.018Z,13.18
2019-02-28T17:42:23.639Z,13.27
2019-02-28T17:45:10.100Z,13.27
2019-02-28T17:48:36.210Z,13.26
2019-02-28T17:51:28.058Z,13.18
2019-02-28T17:54:36.290Z,13.10
2019-02-28T17:57:41.656Z,13.14
2019-02-28T18:00:51.901Z,13.05
2019-02-28T18:03:50.525Z,12.96
2019-02-28T18:07:04.638Z,12.91
2019-02-28T18:10:24.331Z,12.90
2019-02-28T18:13:35.552Z,12.96
2019-02-28T18:16:31.772Z,13.00
2019-02-28T18:19:37.474Z,13.08
2019-02-28T18:22:32.644Z,13.14
2019-02-28T18:25:44.659Z,13.22
2019-02-28T18:28:39.841Z,13.33
2019-02-28T18:31:19.253Z,13.25
2019-02-28T18:34:17.035Z,13.24
2019-02-28T18:36:48.809Z,13.25
2019-02-28T18:39:19.278Z,13.28
2019-02-28T18:41:50.807Z,13.23
2019-02-28T18:44:21.382Z,13.26
2019-02-28T18:46:51.841Z,13.18
2019-02-28T18:49:22.363Z,13.05
2019-02-28T18:51:52.834Z,12.89
2019-02-28T18:54:23.288Z,12.86
2019-02-28T18:56:53.804Z,12.75
2019-02-28T18:59:24.761Z,12.00
2019-02-28T19:01:55.282Z,12.76
2019-02-28T19:04:25.747Z,12.63
2019-02-28T19:06:56.263Z,12.53
2019-02-28T19:09:26.827Z,12.43
2019-02-28T19:11:57.337Z,12.30
2019-02-28T19:14:27.804Z,12.24
2019-02-28T19:16:58.317Z,12.07
2019-02-28T19:19:28.783Z,11.88
2019-02-28T19:21:59.421Z,11.78
2019-02-28T19:24:29.889Z,11.81
2019-02-28T19:27:00.362Z,11.71
2019-02-28T19:29:30.883Z,11.73
2019-02-28T19:32:01.452Z,11.72
2019-02-28T19:34:31.979Z,11.80
2019-02-28T19:37:02.436Z,11.28
2019-02-28T19:39:32.968Z,11.78
2019-02-28T19:42:03.552Z,11.84
2019-02-28T19:44:34.158Z,11.94
2019-02-28T19:47:04.624Z,12.08
2019-02-28T19:49:35.237Z,12.16
2019-02-28T19:52:05.838Z,12.31
2019-02-28T19:54:36.301Z,12.39
2019-02-28T19:57:06.803Z,12.45
2019-02-28T19:59:37.261Z,12.56
2019-02-28T20:02:07.852Z,12.61
2019-02-28T20:04:38.312Z,12.53
2019-02-28T20:07:08.909Z,12.60
2019-02-28T20:09:39.823Z,12.57
2019-02-28T20:12:10.342Z,12.56
2019-02-28T20:14:40.957Z,12.56
2019-02-28T20:17:11.680Z,12.51
2019-02-28T20:19:42.244Z,12.55
2019-02-28T20:22:12.750Z,12.41
2019-02-28T20:24:43.402Z,12.33
2019-02-28T20:27:14.451Z,12.34
2019-02-28T20:29:44.955Z,11.75
2019-02-28T20:32:15.572Z,12.22
2019-02-28T20:34:46.034Z,12.16
2019-02-28T20:37:16.647Z,12.17
2019-02-28T20:39:47.113Z,12.18
2019-02-28T20:42:19.572Z,12.21
2019-02-28T20:44:49.956Z,12.12
2019-02-28T20:47:20.507Z,12.21
2019-02-28T20:49:50.973Z,12.23
2019-02-28T20:52:21.488Z,12.30
2019-02-28T20:54:51.951Z,12.38
2019-02-28T20:57:22.465Z,12.43
2019-02-28T20:59:52.917Z,12.54
2019-02-28T21:02:23.370Z,12.59
2019-02-28T21:04:53.895Z,12.68
2019-02-28T21:07:24.345Z,12.73
2019-02-28T21:09:54.841Z,12.82
2019-02-28T21:12:25.368Z,12.88
2019-02-28T21:14:55.819Z,13.00
2019-02-28T21:17:29.360Z,13.06
2019-02-28T21:19:58.514Z,13.05
2019-02-28T21:22:28.979Z,12.88
2019-02-28T21:24:59.436Z,12.89
2019-02-28T21:27:29.946Z,12.93
2019-02-28T21:30:00.402Z,12.90
2019-02-28T21:32:30.914Z,12.83
2019-02-28T21:35:01.609Z,12.83
2019-02-28T21:37:32.071Z,12.69
2019-02-28T21:40:02.592Z,12.80
2019-02-28T21:42:33.092Z,12.71
2019-02-28T21:45:03.572Z,12.55
2019-02-28T21:47:34.185Z,12.55
2019-02-28T21:50:05.430Z,12.55
2019-02-28T21:52:35.888Z,12.45
2019-02-28T21:55:07.552Z,12.37
2019-02-28T21:57:38.165Z,12.35
2019-02-28T22:00:14.667Z,12.34
2019-02-28T22:02:45.115Z,12.34
2019-02-28T22:05:15.831Z,12.25
2019-02-28T22:07:46.288Z,12.22
2019-02-28T22:10:16.865Z,12.25
2019-02-28T22:12:47.480Z,12.27
2019-02-28T22:15:18.538Z,12.29
2019-02-28T22:17:49.111Z,12.39
2019-02-28T22:20:19.769Z,12.46
2019-02-28T22:22:50.237Z,12.48
2019-02-28T22:25:20.811Z,12.48
2019-02-28T22:27:51.412Z,12.54
2019-02-28T22:30:43.813Z,12.59
2019-02-28T22:33:21.332Z,12.63
2019-02-28T22:35:54.432Z,12.68
2019-02-28T22:38:24.906Z,12.66
2019-02-28T22:40:55.469Z,12.69
2019-02-28T22:43:25.935Z,12.74
2019-02-28T22:45:56.464Z,12.61
2019-02-28T22:48:26.947Z,12.67
2019-02-28T22:50:57.469Z,12.59
2019-02-28T22:53:27.985Z,12.52
2019-02-28T22:55:58.501Z,12.56
2019-02-28T22:58:29.012Z,12.50
2019-02-28T23:01:05.890Z,12.44
2019-02-28T23:03:36.795Z,12.39
2019-02-28T23:06:07.634Z,12.54
2019-02-28T23:08:38.320Z,12.56
2019-02-28T23:11:08.917Z,12.56
2019-02-28T23:13:39.479Z,12.56
2019-02-28T23:16:09.991Z,12.52
2019-02-28T23:18:40.452Z,12.58
2019-02-28T23:21:10.902Z,12.54
2019-02-28T23:23:41.402Z,12.48
2019-02-28T23:26:15.853Z,12.48
2019-02-28T23:28:53.347Z,12.40
2019-02-28T23:31:58.578Z,11.63
2019-02-28T23:34:49.737Z,12.39
2019-02-28T23:37:20.233Z,12.27
2019-02-28T23:39:50.949Z,12.20
2019-02-28T23:42:21.462Z,12.07
2019-02-28T23:44:51.954Z,11.97
2019-02-28T23:47:22.398Z,11.88
2019-02-28T23:49:52.853Z,11.82
2019-02-28T23:52:23.357Z,11.68
2019-02-28T23:54:53.835Z,11.54
2019-02-28T23:57:24.310Z,11.51
2019-02-28T23:59:54.793Z,11.47
